createdAt,value
2023-04-24T00:02:05.023Z,99908.06
2023-04-24T00:04:33.395Z,99898.16
2023-04-24T00:07:01.328Z,99899.75
2023-04-24T00:09:28.280Z,99887.41
2023-04-24T00:11:55.407Z,99882.59
2023-04-24T00:14:22.566Z,99890.09
2023-04-24T00:16:49.610Z,99888.75
2023-04-24T00:19:17.434Z,99881.78
2023-04-24T00:21:44.855Z,99882.31
2023-04-24T00:24:12.236Z,99880.69
2023-04-24T00:26:39.135Z,99859.78
2023-04-24T00:29:06.102Z,99878.28
2023-04-24T00:31:35.706Z,99866.47
2023-04-24T00:34:04.027Z,99858.44
2023-04-24T00:36:31.833Z,99858.16
2023-04-24T00:38:58.933Z,99854.69
2023-04-24T00:41:26.994Z,99850.13
2023-04-24T00:43:54.305Z,99858.69
2023-04-24T00:46:22.402Z,99854.94
2023-04-24T00:48:49.631Z,99850.38
2023-04-24T00:51:16.707Z,99842.34
2023-04-24T00:53:43.879Z,99845.56
2023-04-24T00:56:11.204Z,99834.56
2023-04-24T00:58:38.456Z,99833.22
2023-04-24T01:01:08.049Z,99839.66
2023-04-24T01:03:38.509Z,99823.03
2023-04-24T01:06:06.868Z,99821.16
2023-04-24T01:08:39.771Z,99823.31
2023-04-24T01:11:07.266Z,99817.69
2023-04-24T01:13:34.824Z,99818.50
2023-04-24T01:16:02.416Z,99830.56
2023-04-24T01:18:29.881Z,99826.00
2023-04-24T01:21:03.759Z,99828.69
2023-04-24T01:23:31.823Z,99834.31
2023-04-24T01:25:58.819Z,99830.56
2023-04-24T01:28:26.773Z,99831.63
2023-04-24T01:30:54.459Z,99831.63
2023-04-24T01:33:24.241Z,99834.31
2023-04-24T01:35:51.473Z,99825.19
2023-04-24T01:38:18.819Z,99825.22
2023-04-24T01:40:45.977Z,99817.97
2023-04-24T01:43:13.963Z,99804.56
2023-04-24T01:45:40.939Z,99810.72
2023-04-24T01:48:08.110Z,99810.72
2023-04-24T01:50:35.232Z,99810.19
2023-04-24T01:53:02.477Z,99809.13
2023-04-24T01:55:30.666Z,99806.44
2023-04-24T01:57:58.005Z,99801.09
2023-04-24T02:00:25.895Z,99791.44
2023-04-24T02:02:54.173Z,99788.47
2023-04-24T02:05:21.475Z,99790.34
2023-04-24T02:07:48.713Z,99785.25
2023-04-24T02:10:15.804Z,99778.03
2023-04-24T02:12:43.465Z,99787.41
2023-04-24T02:15:11.507Z,99776.94
2023-04-24T02:17:39.455Z,99780.16
2023-04-24T02:20:08.228Z,99775.06
2023-04-24T02:22:35.153Z,99780.94
2023-04-24T02:25:03.042Z,99788.22
2023-04-24T02:27:29.870Z,99774.53
2023-04-24T02:29:57.662Z,99769.44
2023-04-24T02:32:24.725Z,99774.78
2023-04-24T02:34:51.578Z,99769.16
2023-04-24T02:37:18.537Z,99776.38
2023-04-24T02:39:45.581Z,99773.16
2023-04-24T02:42:12.660Z,99770.47
2023-04-24T02:44:39.895Z,99774.22
2023-04-24T02:47:06.904Z,99767.25
2023-04-24T02:49:33.857Z,99767.78
2023-04-24T02:52:00.813Z,99770.72
2023-04-24T02:54:27.868Z,99767.78
2023-04-24T02:56:55.013Z,99776.06
2023-04-24T02:59:21.990Z,99783.31
2023-04-24T03:01:49.181Z,99771.50
2023-04-24T03:04:16.744Z,99774.44
2023-04-24T03:06:43.990Z,99765.56
2023-04-24T03:09:11.293Z,99758.31
2023-04-24T03:11:38.523Z,99744.91
2023-04-24T03:14:05.570Z,99762.88
2023-04-24T03:16:34.115Z,99763.13
2023-04-24T03:19:01.131Z,99776.25
2023-04-24T03:21:31.595Z,99777.59
2023-04-24T03:23:59.176Z,99769.25
2023-04-24T03:26:26.731Z,99774.59
2023-04-24T03:29:13.936Z,99778.88
2023-04-24T03:31:41.190Z,99772.72
2023-04-24T03:34:08.288Z,99764.09
2023-04-24T03:36:36.099Z,99773.47
2023-04-24T03:39:04.625Z,99764.84
2023-04-24T03:41:34.659Z,99762.69
2023-04-24T03:44:12.163Z,99764.81
2023-04-24T03:46:39.363Z,99770.69
2023-04-24T03:49:07.569Z,99760.47
2023-04-24T03:51:38.254Z,99770.38
2023-04-24T03:54:24.098Z,99772.22
2023-04-24T03:56:52.532Z,99774.63
2023-04-24T03:59:19.611Z,99774.84
2023-04-24T04:01:51.761Z,99767.31
2023-04-24T04:04:19.043Z,99772.09
2023-04-24T04:06:47.483Z,99775.84
2023-04-24T04:09:15.124Z,99773.09
2023-04-24T04:11:42.154Z,99774.16
2023-04-24T04:14:09.250Z,99773.03
2023-04-24T04:16:39.776Z,99763.59
2023-04-24T04:19:08.238Z,99759.56
2023-04-24T04:21:35.850Z,99763.88
2023-04-24T04:24:27.365Z,99757.41
2023-04-24T04:26:57.692Z,99759.00
2023-04-24T04:29:29.498Z,99757.16
2023-04-24T04:31:56.887Z,99760.91
2023-04-24T04:34:24.351Z,99762.50
2023-04-24T04:36:52.526Z,99755.00
2023-04-24T04:39:42.402Z,99767.31
2023-04-24T04:42:18.123Z,99767.84
2023-04-24T04:44:45.922Z,99759.75
2023-04-24T04:47:19.164Z,99771.56
2023-04-24T04:49:46.449Z,99773.16
2023-04-24T04:52:20.674Z,99783.66
2023-04-24T04:54:52.419Z,99776.09
2023-04-24T04:57:19.603Z,99769.34
2023-04-24T04:59:46.929Z,99784.88
2023-04-24T05:02:21.917Z,99788.38
2023-04-24T05:04:49.186Z,99793.44
2023-04-24T05:07:16.531Z,99793.09
2023-04-24T05:09:48.110Z,99794.47
2023-04-24T05:12:15.287Z,99786.63
2023-04-24T05:14:50.161Z,99788.75
2023-04-24T05:17:17.540Z,99787.94
2023-04-24T05:19:45.383Z,99788.75
2023-04-24T05:22:13.320Z,99787.09
2023-04-24T05:24:49.096Z,99794.94
2023-04-24T05:27:35.141Z,99794.09
2023-04-24T05:30:07.392Z,99791.41
2023-04-24T05:32:35.000Z,99784.94
2023-04-24T05:35:02.472Z,99785.97
2023-04-24T05:37:29.336Z,99796.72
2023-04-24T05:39:56.473Z,99797.47
2023-04-24T05:42:23.922Z,99794.78
2023-04-24T05:44:53.287Z,99791.28
2023-04-24T05:47:22.921Z,99803.84
2023-04-24T05:49:51.252Z,99804.41
2023-04-24T05:52:18.304Z,99801.97
2023-04-24T05:54:45.893Z,99805.13
2023-04-24T05:57:16.601Z,99787.34
2023-04-24T05:59:55.172Z,99801.53
2023-04-24T06:02:23.285Z,99802.06
2023-04-24T06:04:50.749Z,99807.69
2023-04-24T06:07:18.720Z,99805.78
2023-04-24T06:09:45.984Z,99819.44
2023-04-24T06:12:13.060Z,99809.81
2023-04-24T06:15:07.173Z,99813.25
2023-04-24T06:18:13.509Z,99806.78
2023-04-24T06:20:41.814Z,99811.25
2023-04-24T06:23:10.443Z,99819.06
2023-04-24T06:25:37.658Z,99821.41
2023-04-24T06:28:04.819Z,99818.13
2023-04-24T06:30:32.297Z,99826.16
2023-04-24T06:33:09.202Z,99821.22
2023-04-24T06:35:46.272Z,99819.38
2023-04-24T06:38:13.187Z,99827.63
2023-04-24T06:40:40.294Z,99818.38
2023-04-24T06:43:07.337Z,99830.13
2023-04-24T06:45:34.460Z,99840.28
2023-04-24T06:48:01.499Z,99833.16
2023-04-24T06:50:28.740Z,99827.34
2023-04-24T06:52:55.932Z,99826.91
2023-04-24T06:55:23.014Z,99819.19
2023-04-24T06:57:50.019Z,99830.94
2023-04-24T07:00:17.230Z,99820.06
2023-04-24T07:02:44.259Z,99814.50
2023-04-24T07:05:13.450Z,99810.31
2023-04-24T07:07:41.198Z,99786.16
2023-04-24T07:10:09.725Z,99799.41
2023-04-24T07:12:37.175Z,99792.63
2023-04-24T07:15:05.210Z,99804.47
2023-04-24T07:17:32.785Z,99801.28
2023-04-24T07:20:00.842Z,99801.09
2023-04-24T07:22:27.937Z,99789.66
2023-04-24T07:24:55.006Z,99794.97
2023-04-24T07:27:22.013Z,99802.47
2023-04-24T07:29:50.012Z,99812.25
2023-04-24T07:32:17.077Z,99801.13
2023-04-24T07:34:44.378Z,99800.47
2023-04-24T07:37:11.732Z,99806.16
2023-04-24T07:39:38.798Z,99821.50
2023-04-24T07:42:05.944Z,99816.13
2023-04-24T07:44:33.218Z,99798.59
2023-04-24T07:47:00.630Z,99789.84
2023-04-24T07:49:28.808Z,99790.22
2023-04-24T07:51:56.076Z,99796.13
2023-04-24T07:54:22.983Z,99797.91
2023-04-24T07:56:50.528Z,99795.94
2023-04-24T07:59:17.739Z,99798.91
2023-04-24T08:01:44.750Z,99794.41
2023-04-24T08:04:11.980Z,99789.81
2023-04-24T08:06:39.033Z,99792.09
2023-04-24T08:09:06.010Z,99796.13
2023-04-24T08:11:33.786Z,99800.13
2023-04-24T08:14:01.075Z,99781.94
2023-04-24T08:16:28.326Z,99788.03
2023-04-24T08:18:55.696Z,99789.81
2023-04-24T08:21:22.723Z,99788.84
2023-04-24T08:23:49.674Z,99788.03
2023-04-24T08:26:16.785Z,99798.91
2023-04-24T08:28:43.917Z,99804.97
2023-04-24T08:31:11.290Z,99791.06
2023-04-24T08:33:38.389Z,99790.47
2023-04-24T08:36:07.172Z,99776.53
2023-04-24T08:38:35.118Z,99766.75
2023-04-24T08:41:03.016Z,99784.16
2023-04-24T08:43:30.270Z,99781.72
2023-04-24T08:45:58.328Z,99761.28
2023-04-24T08:48:30.842Z,99780.97
2023-04-24T08:51:00.299Z,99771.84
2023-04-24T08:53:28.054Z,99773.19
2023-04-24T08:55:57.903Z,99785.88
2023-04-24T08:58:29.276Z,99772.34
2023-04-24T09:00:56.642Z,99769.78
2023-04-24T09:03:24.310Z,99774.78
2023-04-24T09:05:51.755Z,99773.00
2023-04-24T09:08:26.521Z,99775.97
2023-04-24T09:10:53.500Z,99762.19
2023-04-24T09:13:21.580Z,99766.84
2023-04-24T09:15:48.588Z,99774.34
2023-04-24T09:18:15.761Z,99773.31
2023-04-24T09:21:07.299Z,99775.72
2023-04-24T09:23:34.780Z,99780.84
2023-04-24T09:26:06.008Z,99775.50
2023-04-24T09:28:41.810Z,99783.31
2023-04-24T09:31:15.790Z,99785.09
2023-04-24T09:34:07.232Z,99776.16
2023-04-24T09:36:44.011Z,99780.16
2023-04-24T09:39:17.616Z,99783.06
2023-04-24T09:41:52.908Z,99799.34
2023-04-24T09:44:27.904Z,99791.34
2023-04-24T09:47:01.638Z,99798.25
2023-04-24T09:49:31.806Z,99797.03
2023-04-24T09:52:11.108Z,99791.03
2023-04-24T09:54:41.453Z,99810.72
2023-04-24T09:57:11.558Z,99803.69
2023-04-24T09:59:45.777Z,99795.56
2023-04-24T10:02:22.432Z,99793.75
2023-04-24T10:05:01.642Z,99785.91
2023-04-24T10:07:29.134Z,99791.84
2023-04-24T10:09:56.531Z,99788.63
2023-04-24T10:12:24.788Z,99791.03
2023-04-24T10:14:52.215Z,99784.03
2023-04-24T10:17:21.694Z,99788.34
2023-04-24T10:19:49.754Z,99790.41
2023-04-24T10:22:18.039Z,99792.00
2023-04-24T10:24:46.436Z,99795.34
2023-04-24T10:27:16.561Z,99789.59
2023-04-24T10:29:46.004Z,99788.63
2023-04-24T10:32:13.232Z,99795.16
2023-04-24T10:34:40.237Z,99792.72
2023-04-24T10:37:07.411Z,99787.72
2023-04-24T10:39:34.649Z,99780.88
2023-04-24T10:42:01.936Z,99790.91
2023-04-24T10:44:37.652Z,99772.00
2023-04-24T10:47:05.061Z,99775.63
2023-04-24T10:49:33.257Z,99762.22
2023-04-24T10:52:07.942Z,99771.16
2023-04-24T10:54:47.979Z,99779.22
2023-04-24T10:57:24.314Z,99773.31
2023-04-24T11:00:15.020Z,99765.47
2023-04-24T11:02:49.336Z,99762.84
2023-04-24T11:05:18.905Z,99770.53
2023-04-24T11:08:15.764Z,99766.84
2023-04-24T11:10:48.127Z,99747.28
2023-04-24T11:13:22.517Z,99745.63
2023-04-24T11:16:27.198Z,99758.47
2023-04-24T11:19:30.712Z,99752.44
2023-04-24T11:22:06.611Z,99747.38
2023-04-24T11:24:48.629Z,99752.97
2023-04-24T11:27:23.764Z,99750.06
2023-04-24T11:29:57.063Z,99753.00
2023-04-24T11:32:45.290Z,99769.34
2023-04-24T11:35:22.839Z,99762.06
2023-04-24T11:40:24.160Z,99803.53
2023-04-24T11:42:53.796Z,99795.19
2023-04-24T11:45:25.526Z,99825.84
2023-04-24T11:47:52.759Z,99838.03
2023-04-24T11:50:24.021Z,99834.09
2023-04-24T11:52:52.037Z,99811.44
2023-04-24T11:55:19.756Z,99829.88
2023-04-24T11:57:51.487Z,99819.56
2023-04-24T12:00:21.407Z,99811.09
2023-04-24T12:02:49.701Z,99806.22
2023-04-24T12:05:25.268Z,99800.28
2023-04-24T12:07:53.406Z,99797.63
2023-04-24T12:10:29.635Z,99782.31
2023-04-24T12:12:58.822Z,99789.31
2023-04-24T12:15:26.398Z,99764.00
2023-04-24T12:17:55.461Z,99776.19
2023-04-24T12:20:32.391Z,99770.91
2023-04-24T12:23:01.370Z,99766.81
2023-04-24T12:25:34.153Z,99768.19
2023-04-24T12:28:04.062Z,99762.91
2023-04-24T12:30:38.279Z,99754.75
2023-04-24T12:33:05.318Z,99746.56
2023-04-24T12:35:34.810Z,99740.59
2023-04-24T12:38:14.891Z,99736.59
2023-04-24T12:40:43.655Z,99735.94
2023-04-24T12:43:21.215Z,99741.78
2023-04-24T12:45:51.586Z,99727.03
2023-04-24T12:48:18.700Z,99744.53
2023-04-24T12:50:47.065Z,99732.78
2023-04-24T12:53:15.805Z,99734.66
2023-04-24T12:55:43.391Z,99733.53
2023-04-24T12:58:10.608Z,99743.91
2023-04-24T13:00:38.309Z,99741.13
2023-04-24T13:03:06.267Z,99745.47
2023-04-24T13:05:33.533Z,99736.00
2023-04-24T13:08:00.777Z,99730.19
2023-04-24T13:10:27.799Z,99724.28
2023-04-24T13:12:55.132Z,99726.25
2023-04-24T13:15:22.246Z,99725.13
2023-04-24T13:17:49.154Z,99736.44
2023-04-24T13:20:16.272Z,99721.25
2023-04-24T13:22:43.165Z,99760.72
2023-04-24T13:25:11.145Z,99727.84
2023-04-24T13:27:40.533Z,99719.28
2023-04-24T13:30:08.731Z,99695.03
2023-04-24T13:32:36.379Z,99707.13
2023-04-24T13:35:03.809Z,99700.41
2023-04-24T13:37:30.913Z,99726.28
2023-04-24T13:39:57.878Z,99712.75
2023-04-24T13:42:24.923Z,99718.34
2023-04-24T13:44:52.376Z,99702.19
2023-04-24T13:47:19.363Z,99700.47
2023-04-24T13:49:46.337Z,99696.72
2023-04-24T13:52:13.354Z,99710.00
2023-04-24T13:54:40.438Z,99706.13
2023-04-24T13:57:07.567Z,99709.84
2023-04-24T13:59:34.969Z,99696.72
2023-04-24T14:02:02.202Z,99718.66
2023-04-24T14:04:29.255Z,99701.03
2023-04-24T14:06:56.593Z,99706.03
2023-04-24T14:09:24.003Z,99705.88
2023-04-24T14:11:52.386Z,99716.97
2023-04-24T14:14:19.631Z,99731.47
2023-04-24T14:16:46.627Z,99720.88
2023-04-24T14:19:13.552Z,99722.88
2023-04-24T14:21:41.027Z,99718.94
2023-04-24T14:24:09.010Z,99699.84
2023-04-24T14:26:36.361Z,99698.59
2023-04-24T14:29:14.172Z,99697.28
2023-04-24T14:31:42.822Z,99712.47
2023-04-24T14:34:10.306Z,99706.06
2023-04-24T14:36:37.272Z,99706.59
2023-04-24T14:39:07.575Z,99706.84
2023-04-24T14:41:38.623Z,99707.19
2023-04-24T14:44:06.241Z,99710.50
2023-04-24T14:46:33.642Z,99712.81
2023-04-24T14:49:00.768Z,99726.75
2023-04-24T14:51:27.795Z,99727.69
2023-04-24T14:53:54.646Z,99734.56
2023-04-24T14:56:21.533Z,99723.19
2023-04-24T14:58:48.633Z,99717.25
2023-04-24T15:01:17.440Z,99775.34
2023-04-24T15:03:46.328Z,99722.16
2023-04-24T15:06:13.624Z,99719.72
2023-04-24T15:08:40.768Z,99723.06
2023-04-24T15:11:07.893Z,99752.34
2023-04-24T15:13:35.204Z,99735.88
2023-04-24T15:16:03.092Z,99750.69
2023-04-24T15:18:30.272Z,99745.16
2023-04-24T15:20:57.767Z,99741.47
2023-04-24T15:23:24.808Z,99737.66
2023-04-24T15:25:51.853Z,99753.38
2023-04-24T15:28:18.952Z,99752.31
2023-04-24T15:30:46.037Z,99742.56
2023-04-24T15:33:13.038Z,99783.09
2023-04-24T15:35:41.248Z,99758.81
2023-04-24T15:38:08.680Z,99781.72
2023-04-24T15:40:35.872Z,99778.41
2023-04-24T15:43:02.843Z,99774.75
2023-04-24T15:45:30.094Z,99779.75
2023-04-24T15:47:57.254Z,99777.34
2023-04-24T15:50:24.606Z,99790.44
2023-04-24T15:52:51.685Z,99785.94
2023-04-24T15:55:18.724Z,99800.44
2023-04-24T15:57:46.105Z,99793.88
2023-04-24T16:00:14.000Z,99795.56
2023-04-24T16:02:41.385Z,99798.25
2023-04-24T16:05:09.517Z,99793.56
2023-04-24T16:07:38.951Z,99815.25
2023-04-24T16:10:06.489Z,99787.44
2023-04-24T16:12:33.828Z,99802.53
2023-04-24T16:15:01.382Z,99815.56
2023-04-24T16:17:28.451Z,99796.06
2023-04-24T16:19:55.524Z,99793.81
2023-04-24T16:22:22.651Z,99814.22
2023-04-24T16:24:49.682Z,99810.47
2023-04-24T16:27:16.547Z,99797.06
2023-04-24T16:29:43.852Z,99808.34
2023-04-24T16:32:11.121Z,99810.16
2023-04-24T16:34:38.108Z,99831.19
2023-04-24T16:37:06.608Z,99832.66
2023-04-24T16:39:34.260Z,99826.06
2023-04-24T16:42:01.820Z,99820.47
2023-04-24T16:44:28.956Z,99840.63
2023-04-24T16:46:56.544Z,99819.59
2023-04-24T16:49:23.906Z,99827.41
2023-04-24T16:51:51.111Z,99835.72
2023-04-24T16:54:18.284Z,99827.69
2023-04-24T16:56:45.592Z,99832.13
2023-04-24T16:59:12.633Z,99837.72
2023-04-24T17:01:39.895Z,99839.16
2023-04-24T17:04:07.097Z,99854.56
2023-04-24T17:06:34.430Z,99885.53
2023-04-24T17:09:01.491Z,99873.31
2023-04-24T17:11:30.953Z,99869.19
2023-04-24T17:14:01.887Z,99895.00
2023-04-24T17:16:29.449Z,99903.78
2023-04-24T17:18:56.564Z,99904.31
2023-04-24T17:21:23.953Z,99900.78
2023-04-24T17:23:51.051Z,99896.84
2023-04-24T17:26:18.144Z,99899.97
2023-04-24T17:28:45.330Z,99907.81
2023-04-24T17:31:12.457Z,99911.97
2023-04-24T17:33:39.525Z,99925.09
2023-04-24T17:36:07.642Z,99901.25
2023-04-24T17:38:35.037Z,99913.75
2023-04-24T17:41:02.410Z,99922.56
2023-04-24T17:43:29.647Z,99934.50
2023-04-24T17:45:57.154Z,99934.84
2023-04-24T17:48:24.220Z,99948.47
2023-04-24T17:50:51.807Z,99957.53
2023-04-24T17:53:19.046Z,99945.78
2023-04-24T17:55:46.643Z,99950.66
2023-04-24T17:58:14.892Z,99957.19
2023-04-24T18:00:42.122Z,99946.22
2023-04-24T18:03:10.557Z,99963.56
2023-04-24T18:05:39.191Z,99978.41
2023-04-24T18:08:06.846Z,99978.47
2023-04-24T18:10:37.751Z,99990.38
2023-04-24T18:13:05.362Z,99990.69
2023-04-24T18:15:32.685Z,99998.28
2023-04-24T18:17:59.844Z,100003.97
2023-04-24T18:20:27.198Z,100006.97
2023-04-24T18:22:54.678Z,100012.13
2023-04-24T18:25:26.608Z,100014.09
2023-04-24T18:27:55.688Z,100022.75
2023-04-24T18:30:24.188Z,100032.16
2023-04-24T18:32:53.261Z,100035.94
2023-04-24T18:35:21.877Z,100024.94
2023-04-24T18:37:50.130Z,100036.78
2023-04-24T18:40:17.862Z,100058.56
2023-04-24T18:42:45.299Z,100049.69
2023-04-24T18:45:14.992Z,100033.81
2023-04-24T18:47:44.056Z,100046.78
2023-04-24T18:50:12.141Z,100067.25
2023-04-24T18:52:39.206Z,100079.34
2023-04-24T18:55:07.307Z,100093.63
2023-04-24T18:57:34.377Z,100082.84
2023-04-24T19:00:01.632Z,100084.75
2023-04-24T19:02:28.937Z,100099.03
2023-04-24T19:04:56.132Z,100098.78
2023-04-24T19:07:23.094Z,100107.66
2023-04-24T19:09:50.208Z,100108.72
2023-04-24T19:12:17.390Z,100116.25
2023-04-24T19:14:46.181Z,100107.66
2023-04-24T19:17:13.932Z,100135.63
2023-04-24T19:19:40.877Z,100128.63
2023-04-24T19:22:08.002Z,100112.47
2023-04-24T19:24:35.351Z,100123.47
2023-04-24T19:27:02.545Z,100125.63
2023-04-24T19:29:29.531Z,100132.06
2023-04-24T19:31:58.500Z,100128.03
2023-04-24T19:34:26.704Z,100109.44
2023-04-24T19:36:54.216Z,100132.81
2023-04-24T19:39:21.223Z,100124.19
2023-04-24T19:41:48.054Z,100131.44
2023-04-24T19:44:15.862Z,100140.28
2023-04-24T19:46:43.598Z,100141.06
2023-04-24T19:49:10.567Z,100156.13
2023-04-24T19:51:38.691Z,100148.31
2023-04-24T19:54:06.416Z,100153.13
2023-04-24T19:56:34.007Z,100150.16
2023-04-24T19:59:01.451Z,100161.41
2023-04-24T20:01:28.657Z,100150.94
2023-04-24T20:03:56.118Z,100146.34
2023-04-24T20:06:23.670Z,100145.00
2023-04-24T20:08:51.050Z,100150.31
2023-04-24T20:11:18.473Z,100145.44
2023-04-24T20:13:45.805Z,100138.44
2023-04-24T20:16:12.871Z,100151.84
2023-04-24T20:18:39.875Z,100154.75
2023-04-24T20:21:07.016Z,100157.72
2023-04-24T20:23:33.933Z,100159.81
2023-04-24T20:26:01.282Z,100124.69
2023-04-24T20:28:30.001Z,100157.66
2023-04-24T20:30:58.888Z,100161.13
2023-04-24T20:33:27.972Z,100158.91
2023-04-24T20:35:55.624Z,100148.16
2023-04-24T20:38:22.899Z,100162.13
2023-04-24T20:40:57.624Z,100160.72
2023-04-24T20:43:28.647Z,100159.38
2023-04-24T20:45:57.488Z,100156.41
2023-04-24T20:48:24.539Z,100148.63
2023-04-24T20:50:53.803Z,100163.13
2023-04-24T20:53:21.134Z,100153.72
2023-04-24T20:55:48.626Z,100168.44
2023-04-24T20:58:20.716Z,100163.00
2023-04-24T21:00:47.949Z,100149.28
2023-04-24T21:03:15.610Z,100163.75
2023-04-24T21:05:42.833Z,100157.31
2023-04-24T21:08:09.696Z,100151.34
2023-04-24T21:10:36.812Z,100161.75
2023-04-24T21:13:03.814Z,100155.59
2023-04-24T21:15:30.887Z,100157.47
2023-04-24T21:17:58.206Z,100154.22
2023-04-24T21:20:25.839Z,100161.47
2023-04-24T21:22:52.807Z,100160.63
2023-04-24T21:25:19.871Z,100165.22
2023-04-24T21:27:47.537Z,100165.22
2023-04-24T21:30:14.770Z,100156.56
2023-04-24T21:32:41.994Z,100146.94
2023-04-24T21:35:09.622Z,100152.03
2023-04-24T21:37:39.488Z,100146.88
2023-04-24T21:40:11.478Z,100138.56
2023-04-24T21:42:41.084Z,100140.13
2023-04-24T21:45:09.665Z,100156.50
2023-04-24T21:47:36.978Z,100147.66
2023-04-24T21:50:05.602Z,100142.75
2023-04-24T21:52:32.518Z,100157.75
2023-04-24T21:54:59.771Z,100137.16
2023-04-24T21:57:26.927Z,100145.19
2023-04-24T21:59:53.916Z,100147.31
2023-04-24T22:02:21.594Z,100145.22
2023-04-24T22:04:50.444Z,100148.97
2023-04-24T22:07:17.488Z,100133.88
2023-04-24T22:09:44.578Z,100148.38
2023-04-24T22:12:11.652Z,100149.97
2023-04-24T22:14:38.554Z,100141.41
2023-04-24T22:17:05.505Z,100147.00
2023-04-24T22:19:32.732Z,100145.69
2023-04-24T22:21:59.958Z,100139.75
2023-04-24T22:24:26.919Z,100138.63
2023-04-24T22:26:54.083Z,100138.63
2023-04-24T22:29:21.435Z,100164.59
2023-04-24T22:31:49.024Z,100146.06
2023-04-24T22:34:17.013Z,100153.53
2023-04-24T22:36:44.186Z,100140.41
2023-04-24T22:39:15.742Z,100149.50
2023-04-24T22:41:43.005Z,100149.19
2023-04-24T22:44:11.020Z,100138.19
2023-04-24T22:46:38.231Z,100140.81
2023-04-24T22:49:05.276Z,100152.31
2023-04-24T22:51:35.331Z,100149.09
2023-04-24T22:54:04.621Z,100144.75
2023-04-24T22:56:32.147Z,100152.00
2023-04-24T22:58:59.603Z,100155.13
2023-04-24T23:01:27.767Z,100141.41
2023-04-24T23:03:55.300Z,100156.66
2023-04-24T23:06:22.375Z,100148.38
2023-04-24T23:08:49.616Z,100155.31
2023-04-24T23:11:17.174Z,100153.56
2023-04-24T23:13:44.450Z,100152.47
2023-04-24T23:16:11.680Z,100153.81
2023-04-24T23:18:38.613Z,100152.75
2023-04-24T23:21:06.022Z,100145.00
2023-04-24T23:23:33.222Z,100149.88
2023-04-24T23:26:01.044Z,100150.16
2023-04-24T23:28:28.307Z,100148.31
2023-04-24T23:30:55.331Z,100150.50
2023-04-24T23:33:22.342Z,100155.34
2023-04-24T23:35:49.621Z,100157.00
2023-04-24T23:38:16.706Z,100152.22
2023-04-24T23:40:43.704Z,100139.91
2023-04-24T23:43:10.678Z,100127.81
2023-04-24T23:45:37.674Z,100127.88
2023-04-24T23:48:05.044Z,100123.56
2023-04-24T23:50:32.431Z,100135.66
2023-04-24T23:52:59.588Z,100128.69
2023-04-24T23:55:26.730Z,100119.28
2023-04-24T23:57:53.992Z,100130.50
